createdAt,value
2019-02-08T00:00:27.684Z,100886.66
2019-02-08T00:02:34.569Z,100897.89
2019-02-08T00:04:41.652Z,100899.61
2019-02-08T00:06:49.347Z,100898.30
2019-02-08T00:08:56.283Z,100895.75
2019-02-08T00:11:03.088Z,100896.14
2019-02-08T00:13:11.044Z,100902.62
2019-02-08T00:15:26.363Z,100897.04
2019-02-08T00:17:33.871Z,100907.81
2019-02-08T00:19:41.364Z,100902.66
2019-02-08T00:21:48.684Z,100905.27
2019-02-08T00:23:55.847Z,100908.72
2019-02-08T00:26:02.764Z,100905.70
2019-02-08T00:28:10.244Z,100905.27
2019-02-08T00:30:26.531Z,100907.84
2019-02-08T00:32:33.526Z,100909.55
2019-02-08T00:34:40.284Z,100910.42
2019-02-08T00:36:47.604Z,100906.50
2019-02-08T00:38:54.413Z,100906.08
2019-02-08T00:41:01.763Z,100912.52
2019-02-08T00:43:09.444Z,100915.55
2019-02-08T00:45:23.137Z,100911.63
2019-02-08T00:47:30.244Z,100919.40
2019-02-08T00:49:37.203Z,100918.09
2019-02-08T00:51:44.085Z,100921.55
2019-02-08T00:53:50.883Z,100918.98
2019-02-08T00:55:57.926Z,100916.79
2019-02-08T00:58:06.244Z,100915.05
2019-02-08T01:00:17.203Z,100913.75
2019-02-08T01:02:24.204Z,100909.48
2019-02-08T01:04:31.285Z,100914.23
2019-02-08T01:06:38.204Z,100924.55
2019-02-08T01:08:45.204Z,100925.42
2019-02-08T01:10:53.645Z,100928.44
2019-02-08T01:13:01.087Z,100925.84
2019-02-08T01:15:12.564Z,100926.28
2019-02-08T01:17:19.604Z,100926.28
2019-02-08T01:19:26.284Z,100924.98
2019-02-08T01:21:32.914Z,100931.87
2019-02-08T01:23:41.353Z,100924.08
2019-02-08T01:25:48.687Z,100923.64
2019-02-08T01:27:55.966Z,100923.19
2019-02-08T01:30:05.519Z,100921.87
2019-02-08T01:32:12.845Z,100922.72
2019-02-08T01:34:19.606Z,100931.78
2019-02-08T01:36:26.443Z,100927.03
2019-02-08T01:38:35.604Z,100933.49
2019-02-08T01:40:43.964Z,100934.80
2019-02-08T01:42:51.003Z,100933.91
2019-02-08T01:44:58.204Z,100941.27
2019-02-08T01:47:05.363Z,100944.27
2019-02-08T01:49:13.684Z,100941.23
2019-02-08T01:51:20.444Z,100945.11
2019-02-08T01:53:27.844Z,100946.44
2019-02-08T01:55:35.445Z,100947.73
2019-02-08T01:57:42.645Z,100948.59
2019-02-08T01:59:50.084Z,100940.36
2019-02-08T02:01:56.644Z,100953.30
2019-02-08T02:04:03.503Z,100951.59
2019-02-08T02:06:10.806Z,100951.16
2019-02-08T02:08:17.995Z,100953.33
2019-02-08T02:10:46.645Z,100952.85
2019-02-08T02:12:54.044Z,100952.41
2019-02-08T02:15:01.204Z,100954.55
2019-02-08T02:17:09.885Z,100960.53
2019-02-08T02:19:16.603Z,100969.16
2019-02-08T02:21:24.863Z,100961.34
2019-02-08T02:23:31.683Z,100968.23
2019-02-08T02:25:38.382Z,100967.34
2019-02-08T02:27:46.261Z,100963.91
2019-02-08T02:29:55.302Z,100963.43
2019-02-08T02:32:02.160Z,100969.45
2019-02-08T02:34:10.702Z,100976.75
2019-02-08T02:36:18.060Z,100970.26
2019-02-08T02:38:24.801Z,100977.14
2019-02-08T02:40:31.801Z,100985.74
2019-02-08T02:42:38.362Z,100989.63
2019-02-08T02:44:46.284Z,100981.45
2019-02-08T02:46:54.763Z,100979.70
2019-02-08T02:49:01.714Z,100983.16
2019-02-08T02:51:08.502Z,100993.08
2019-02-08T02:53:16.061Z,100984.45
2019-02-08T02:55:32.422Z,100987.42
2019-02-08T02:57:41.344Z,100991.79
2019-02-08T02:59:47.986Z,100989.14
2019-02-08T03:01:54.880Z,100995.61
2019-02-08T03:04:02.140Z,100995.12
2019-02-08T03:06:09.125Z,100992.53
2019-02-08T03:08:17.539Z,100997.67
2019-02-08T03:10:25.942Z,101009.70
2019-02-08T03:12:32.657Z,101016.58
2019-02-08T03:14:39.602Z,101011.80
2019-02-08T03:16:46.420Z,101009.59
2019-02-08T03:18:53.280Z,101011.27
2019-02-08T03:21:00.622Z,101009.95
2019-02-08T03:23:09.279Z,101015.95
2019-02-08T03:25:21.379Z,101010.75
2019-02-08T03:27:28.160Z,101014.14
2019-02-08T03:29:35.700Z,101008.55
2019-02-08T03:31:43.057Z,101009.42
2019-02-08T03:33:50.358Z,101009.42
2019-02-08T03:35:58.879Z,101016.30
2019-02-08T03:38:06.065Z,101017.59
2019-02-08T03:40:17.105Z,101022.80
2019-02-08T03:42:24.146Z,101015.47
2019-02-08T03:44:31.001Z,101021.08
2019-02-08T03:46:37.467Z,101018.50
2019-02-08T03:48:44.122Z,101021.12
2019-02-08T03:50:50.800Z,101018.92
2019-02-08T03:52:58.177Z,101023.67
2019-02-08T03:55:06.842Z,101019.76
2019-02-08T03:57:15.284Z,101022.38
2019-02-08T03:59:22.282Z,101025.42
2019-02-08T04:01:30.126Z,101026.25
2019-02-08T04:03:37.250Z,101034.42
2019-02-08T04:05:44.132Z,101035.71
2019-02-08T04:07:52.837Z,101041.69
2019-02-08T04:09:59.997Z,101041.68
2019-02-08T04:12:06.978Z,101048.98
2019-02-08T04:14:16.635Z,101039.90
2019-02-08T04:16:23.318Z,101045.94
2019-02-08T04:18:30.056Z,101035.16
2019-02-08T04:20:38.605Z,101045.94
2019-02-08T04:22:45.192Z,101048.11
2019-02-08T04:24:51.825Z,101051.14
2019-02-08T04:26:58.810Z,101053.27
2019-02-08T04:29:05.573Z,101055.89
2019-02-08T04:31:13.658Z,101055.89
2019-02-08T04:33:20.213Z,101055.44
2019-02-08T04:35:27.255Z,101053.77
2019-02-08T04:37:33.960Z,101059.80
2019-02-08T04:39:41.039Z,101057.19
2019-02-08T04:41:49.023Z,101055.89
2019-02-08T04:43:58.453Z,101058.89
2019-02-08T04:46:06.202Z,101064.06
2019-02-08T04:48:12.823Z,101064.90
2019-02-08T04:50:28.794Z,101062.31
2019-02-08T04:52:37.139Z,101063.57
2019-02-08T04:54:43.853Z,101060.11
2019-02-08T04:56:53.132Z,101076.87
2019-02-08T04:58:59.581Z,101074.28
2019-02-08T05:01:06.400Z,101073.83
2019-02-08T05:03:13.342Z,101075.95
2019-02-08T05:05:20.490Z,101078.08
2019-02-08T05:07:27.993Z,101074.16
2019-02-08T05:09:34.620Z,101078.45
2019-02-08T05:11:41.461Z,101083.58
2019-02-08T05:13:49.412Z,101087.45
2019-02-08T05:15:55.861Z,101087.50
2019-02-08T05:18:02.710Z,101090.95
2019-02-08T05:20:18.046Z,101084.45
2019-02-08T05:22:25.163Z,101084.87
2019-02-08T05:24:32.180Z,101087.87
2019-02-08T05:26:38.910Z,101093.41
2019-02-08T05:28:46.756Z,101092.11
2019-02-08T05:30:53.207Z,101093.37
2019-02-08T05:33:20.775Z,101093.78
2019-02-08T05:35:28.115Z,101099.36
2019-02-08T05:37:34.887Z,101094.56
2019-02-08T05:39:41.487Z,101099.69
2019-02-08T05:41:48.348Z,101098.35
2019-02-08T05:43:55.220Z,101100.44
2019-02-08T05:46:01.752Z,101102.56
2019-02-08T05:48:08.300Z,101100.34
2019-02-08T05:50:25.935Z,101098.13
2019-02-08T05:52:32.488Z,101101.12
2019-02-08T05:54:39.244Z,101104.91
2019-02-08T05:56:46.168Z,101109.19
2019-02-08T05:58:54.178Z,101116.02
2019-02-08T06:01:00.898Z,101115.09
2019-02-08T06:03:08.176Z,101119.37
2019-02-08T06:05:17.730Z,101120.61
2019-02-08T06:07:25.356Z,101114.06
2019-02-08T06:09:32.128Z,101120.92
2019-02-08T06:11:38.908Z,101123.05
2019-02-08T06:13:45.827Z,101121.29
2019-02-08T06:15:52.439Z,101123.41
2019-02-08T06:17:59.071Z,101123.81
2019-02-08T06:20:10.184Z,101127.41
2019-02-08T06:22:17.351Z,101130.27
2019-02-08T06:24:25.666Z,101129.91
2019-02-08T06:26:32.486Z,101129.24
2019-02-08T06:28:39.030Z,101128.63
2019-02-08T06:30:46.056Z,101136.66
2019-02-08T06:32:55.510Z,101139.44
2019-02-08T06:35:02.326Z,101140.59
2019-02-08T06:37:09.116Z,101142.63
2019-02-08T06:39:17.319Z,101147.27
2019-02-08T06:41:23.916Z,101153.73
2019-02-08T06:43:30.781Z,101160.14
2019-02-08T06:45:38.027Z,101165.72
2019-02-08T06:47:46.756Z,101160.09
2019-02-08T06:49:54.597Z,101165.70
2019-02-08T06:52:01.026Z,101166.59
2019-02-08T06:54:07.966Z,101168.39
2019-02-08T06:56:16.926Z,101176.28
2019-02-08T06:58:26.407Z,101167.41
2019-02-08T07:00:52.393Z,101160.22
2019-02-08T07:03:20.695Z,101162.66
2019-02-08T07:05:47.776Z,101160.67
2019-02-08T07:08:09.834Z,101165.07
2019-02-08T07:10:21.316Z,101163.08
2019-02-08T07:12:32.206Z,101157.93
2019-02-08T07:14:43.815Z,101166.98
2019-02-08T07:17:01.496Z,101159.56
2019-02-08T07:19:16.045Z,101172.02
2019-02-08T07:21:31.685Z,101171.20
2019-02-08T07:23:40.352Z,101169.20
2019-02-08T07:25:48.768Z,101176.27
2019-02-08T07:27:59.942Z,101176.72
2019-02-08T07:30:12.461Z,101176.84
2019-02-08T07:32:30.872Z,101182.08
2019-02-08T07:34:39.355Z,101184.75
2019-02-08T07:36:50.786Z,101194.52
2019-02-08T07:39:03.778Z,101195.21
2019-02-08T07:41:31.051Z,101197.62
2019-02-08T07:43:40.375Z,101203.13
2019-02-08T07:45:52.726Z,101206.14
2019-02-08T07:48:10.425Z,101212.19
2019-02-08T07:50:21.401Z,101214.39
2019-02-08T07:52:47.241Z,101217.09
2019-02-08T07:55:11.493Z,101207.27
2019-02-08T07:57:23.956Z,101206.05
2019-02-08T07:59:33.312Z,101203.57
2019-02-08T08:01:46.354Z,101206.65
2019-02-08T08:04:01.430Z,101197.27
2019-02-08T08:06:09.615Z,101198.59
2019-02-08T08:08:35.326Z,101200.86
2019-02-08T08:10:46.915Z,101199.20
2019-02-08T08:13:07.103Z,101204.87
2019-02-08T08:15:18.995Z,101211.82
2019-02-08T08:17:29.465Z,101212.25
2019-02-08T08:19:52.862Z,101213.18
2019-02-08T08:22:01.532Z,101213.23
2019-02-08T08:24:12.915Z,101218.95
2019-02-08T08:26:24.984Z,101217.27
2019-02-08T08:28:42.963Z,101214.73
2019-02-08T08:30:53.330Z,101215.20
2019-02-08T08:33:04.905Z,101222.12
2019-02-08T08:35:42.597Z,101222.63
2019-02-08T08:38:13.096Z,101223.55
2019-02-08T08:40:47.949Z,101215.34
2019-02-08T08:43:36.719Z,101219.30
2019-02-08T08:46:10.105Z,101215.80
2019-02-08T08:48:48.892Z,101218.84
2019-02-08T08:51:20.083Z,101218.84
2019-02-08T08:54:01.036Z,101232.30
2019-02-08T08:56:27.989Z,101224.97
2019-02-08T08:59:05.515Z,101218.53
2019-02-08T09:01:47.982Z,101219.90
2019-02-08T09:04:07.861Z,101215.61
2019-02-08T09:06:52.125Z,101222.12
2019-02-08T09:09:18.559Z,101225.19
2019-02-08T09:12:02.575Z,101215.70
2019-02-08T09:14:39.205Z,101222.20
2019-02-08T09:17:07.792Z,101221.84
2019-02-08T09:19:31.960Z,101226.59
2019-02-08T09:22:22.053Z,101224.92
2019-02-08T09:24:53.761Z,101231.44
2019-02-08T09:27:37.182Z,101241.86
2019-02-08T09:30:16.773Z,101244.91
2019-02-08T09:32:49.836Z,101258.35
2019-02-08T09:35:25.266Z,101249.32
2019-02-08T09:37:46.444Z,101249.77
2019-02-08T09:39:57.385Z,101242.00
2019-02-08T09:42:22.955Z,101245.49
2019-02-08T09:45:27.345Z,101243.78
2019-02-08T09:48:10.115Z,101248.95
2019-02-08T09:50:41.704Z,101253.30
2019-02-08T09:53:30.311Z,101248.11
2019-02-08T09:55:44.154Z,101248.13
2019-02-08T09:58:09.496Z,101237.36
2019-02-08T10:00:35.098Z,101237.37
2019-02-08T10:03:12.979Z,101234.81
2019-02-08T10:05:43.406Z,101239.16
2019-02-08T10:08:14.878Z,101237.45
2019-02-08T10:10:54.612Z,101242.23
2019-02-08T10:13:25.238Z,101240.50
2019-02-08T10:16:11.039Z,101245.28
2019-02-08T10:18:54.048Z,101245.28
2019-02-08T10:21:26.305Z,101245.72
2019-02-08T10:24:19.537Z,101243.98
2019-02-08T10:26:57.478Z,101244.42
2019-02-08T10:29:40.112Z,101244.44
2019-02-08T10:32:27.222Z,101243.16
2019-02-08T10:35:19.030Z,101241.86
2019-02-08T10:37:57.024Z,101244.45
2019-02-08T10:40:36.674Z,101235.78
2019-02-08T10:43:03.476Z,101238.39
2019-02-08T10:45:35.129Z,101240.98
2019-02-08T10:48:10.175Z,101245.75
2019-02-08T10:50:50.078Z,101239.26
2019-02-08T10:53:53.150Z,101235.78
2019-02-08T10:56:25.204Z,101240.52
2019-02-08T10:59:16.795Z,101233.59
2019-02-08T11:01:52.392Z,101235.77
2019-02-08T11:04:34.695Z,101230.56
2019-02-08T11:07:08.363Z,101227.53
2019-02-08T11:09:53.876Z,101224.05
2019-02-08T11:12:24.705Z,101225.77
2019-02-08T11:15:03.535Z,101221.42
2019-02-08T11:17:49.232Z,101222.72
2019-02-08T11:19:59.107Z,101223.11
2019-02-08T11:22:05.915Z,101216.17
2019-02-08T11:24:13.094Z,101226.19
2019-02-08T11:26:24.168Z,101223.57
2019-02-08T11:28:30.055Z,101226.16
2019-02-08T11:30:36.859Z,101216.59
2019-02-08T11:32:45.122Z,101213.55
2019-02-08T11:34:52.005Z,101215.70
2019-02-08T11:36:58.882Z,101221.34
2019-02-08T11:39:11.790Z,101219.17
2019-02-08T11:41:18.653Z,101218.30
2019-02-08T11:43:27.252Z,101218.31
2019-02-08T11:45:33.756Z,101211.38
2019-02-08T11:47:41.163Z,101211.34
2019-02-08T11:49:47.872Z,101205.73
2019-02-08T11:51:54.623Z,101209.20
2019-02-08T11:54:04.030Z,101206.17
2019-02-08T11:56:11.073Z,101206.59
2019-02-08T11:58:17.705Z,101196.59
2019-02-08T12:00:31.183Z,101190.93
2019-02-08T12:02:40.510Z,101196.14
2019-02-08T12:04:46.622Z,101194.31
2019-02-08T12:06:53.350Z,101193.88
2019-02-08T12:09:01.444Z,101196.86
2019-02-08T12:11:09.432Z,101188.53
2019-02-08T12:13:16.172Z,101190.28
2019-02-08T12:15:24.505Z,101186.84
2019-02-08T12:17:31.414Z,101189.40
2019-02-08T12:19:38.379Z,101187.33
2019-02-08T12:21:44.984Z,101181.77
2019-02-08T12:23:51.623Z,101182.22
2019-02-08T12:25:58.884Z,101178.33
2019-02-08T12:28:06.606Z,101177.48
2019-02-08T12:30:40.202Z,101168.78
2019-02-08T12:32:49.937Z,101165.73
2019-02-08T12:34:58.026Z,101175.80
2019-02-08T12:37:04.741Z,101180.14
2019-02-08T12:39:12.580Z,101179.30
2019-02-08T12:41:18.963Z,101184.08
2019-02-08T12:43:27.110Z,101188.40
2019-02-08T12:45:33.965Z,101188.86
2019-02-08T12:47:40.503Z,101187.54
2019-02-08T12:49:48.531Z,101194.48
2019-02-08T12:51:55.181Z,101194.47
2019-02-08T12:54:03.283Z,101195.33
2019-02-08T12:56:12.228Z,101197.07
2019-02-08T12:58:18.680Z,101195.34
2019-02-08T13:00:30.576Z,101196.25
2019-02-08T13:02:37.335Z,101197.98
2019-02-08T13:04:44.207Z,101199.31
2019-02-08T13:06:51.119Z,101192.78
2019-02-08T13:08:57.877Z,101191.07
2019-02-08T13:11:06.084Z,101187.16
2019-02-08T13:13:12.839Z,101185.00
2019-02-08T13:15:19.983Z,101194.11
2019-02-08T13:17:29.708Z,101186.30
2019-02-08T13:19:36.327Z,101189.78
2019-02-08T13:21:43.043Z,101185.89
2019-02-08T13:23:49.682Z,101181.52
2019-02-08T13:25:57.897Z,101188.89
2019-02-08T13:28:04.388Z,101179.36
2019-02-08T13:30:32.548Z,101188.92
2019-02-08T13:32:39.187Z,101182.41
2019-02-08T13:34:45.948Z,101186.30
2019-02-08T13:36:52.847Z,101178.05
2019-02-08T13:39:00.007Z,101185.44
2019-02-08T13:41:06.835Z,101185.45
2019-02-08T13:43:13.495Z,101184.56
2019-02-08T13:45:20.931Z,101176.74
2019-02-08T13:47:27.488Z,101173.73
2019-02-08T13:49:36.774Z,101177.19
2019-02-08T13:51:43.650Z,101173.72
2019-02-08T13:53:51.796Z,101173.28
2019-02-08T13:55:58.968Z,101181.95
2019-02-08T13:58:06.207Z,101182.37
2019-02-08T14:00:17.066Z,101180.20
2019-02-08T14:02:23.643Z,101187.59
2019-02-08T14:04:31.754Z,101178.06
2019-02-08T14:06:38.702Z,101181.52
2019-02-08T14:08:45.185Z,101172.43
2019-02-08T14:10:53.150Z,101173.29
2019-02-08T14:12:59.787Z,101170.70
2019-02-08T14:15:11.639Z,101160.70
2019-02-08T14:17:19.783Z,101168.98
2019-02-08T14:19:26.572Z,101172.00
2019-02-08T14:21:33.398Z,101170.72
2019-02-08T14:23:41.225Z,101172.01
2019-02-08T14:25:48.892Z,101163.79
2019-02-08T14:27:55.514Z,101165.52
2019-02-08T14:30:03.792Z,101171.61
2019-02-08T14:32:11.166Z,101170.32
2019-02-08T14:34:17.945Z,101173.80
2019-02-08T14:36:24.494Z,101178.14
2019-02-08T14:38:31.134Z,101169.47
2019-02-08T14:40:38.968Z,101164.26
2019-02-08T14:42:46.159Z,101169.47
2019-02-08T14:44:53.005Z,101172.52
2019-02-08T14:46:59.765Z,101170.33
2019-02-08T14:49:06.775Z,101176.41
2019-02-08T14:51:13.645Z,101166.45
2019-02-08T14:53:20.642Z,101165.57
2019-02-08T14:55:27.576Z,101164.70
2019-02-08T14:57:34.333Z,101166.00
2019-02-08T14:59:41.259Z,101166.86
2019-02-08T15:01:49.176Z,101167.30
2019-02-08T15:03:55.996Z,101166.88
2019-02-08T15:06:02.696Z,101172.07
2019-02-08T15:08:09.485Z,101165.13
2019-02-08T15:10:20.331Z,101167.28
2019-02-08T15:12:27.286Z,101165.96
2019-02-08T15:14:34.872Z,101166.40
2019-02-08T15:16:41.583Z,101161.61
2019-02-08T15:18:48.296Z,101166.34
2019-02-08T15:20:54.872Z,101158.97
2019-02-08T15:23:01.789Z,101165.45
2019-02-08T15:25:10.935Z,101157.22
2019-02-08T15:27:24.174Z,101158.08
2019-02-08T15:29:26.855Z,101152.88
2019-02-08T15:31:33.634Z,101151.09
2019-02-08T15:33:40.714Z,101151.97
2019-02-08T15:35:50.154Z,101146.73
2019-02-08T15:37:57.423Z,101145.84
2019-02-08T15:40:05.805Z,101150.13
2019-02-08T15:42:14.371Z,101145.34
2019-02-08T15:44:21.923Z,101151.80
2019-02-08T15:46:29.561Z,101153.09
2019-02-08T15:48:36.915Z,101151.33
2019-02-08T15:50:44.090Z,101149.12
2019-02-08T15:52:52.761Z,101147.37
2019-02-08T15:54:59.850Z,101151.21
2019-02-08T15:57:08.150Z,101154.20
2019-02-08T15:59:15.174Z,101155.91
2019-02-08T16:01:22.082Z,101165.81
2019-02-08T16:03:30.513Z,101162.31
2019-02-08T16:05:38.161Z,101165.30
2019-02-08T16:07:45.401Z,101165.28
2019-02-08T16:09:52.373Z,101162.69
2019-02-08T16:11:59.915Z,101164.81
2019-02-08T16:14:09.354Z,101171.74
2019-02-08T16:16:17.041Z,101181.23
2019-02-08T16:18:24.009Z,101182.91
2019-02-08T16:20:31.193Z,101176.41
2019-02-08T16:22:38.424Z,101176.81
2019-02-08T16:24:45.373Z,101175.89
2019-02-08T16:26:52.611Z,101171.95
2019-02-08T16:28:59.716Z,101172.34
2019-02-08T16:31:07.251Z,101173.63
2019-02-08T16:33:14.295Z,101173.14
2019-02-08T16:35:24.114Z,101175.73
2019-02-08T16:37:31.538Z,101170.53
2019-02-08T16:39:38.624Z,101176.98
2019-02-08T16:41:46.384Z,101172.67
2019-02-08T16:43:53.805Z,101170.47
2019-02-08T16:46:01.316Z,101163.10
2019-02-08T16:48:17.802Z,101165.21
2019-02-08T16:50:31.074Z,101165.63
2019-02-08T16:52:38.057Z,101170.78
2019-02-08T16:54:44.975Z,101166.00
2019-02-08T16:56:52.361Z,101163.38
2019-02-08T16:59:00.546Z,101162.51
2019-02-08T17:01:08.463Z,101160.77
2019-02-08T17:03:16.153Z,101163.74
2019-02-08T17:05:27.141Z,101162.90
2019-02-08T17:07:34.525Z,101157.27
2019-02-08T17:09:41.695Z,101158.05
2019-02-08T17:11:49.184Z,101157.19
2019-02-08T17:13:57.404Z,101160.22
2019-02-08T17:16:04.704Z,101158.90
2019-02-08T17:18:12.411Z,101154.17
2019-02-08T17:20:24.204Z,101158.05
2019-02-08T17:22:31.321Z,101160.25
2019-02-08T17:24:38.445Z,101149.90
2019-02-08T17:26:45.606Z,101154.63
2019-02-08T17:28:53.154Z,101152.91
2019-02-08T17:31:00.605Z,101157.66
2019-02-08T17:33:09.085Z,101148.61
2019-02-08T17:35:22.353Z,101146.86
2019-02-08T17:37:29.395Z,101143.37
2019-02-08T17:39:36.842Z,101139.45
2019-02-08T17:41:44.363Z,101147.16
2019-02-08T17:43:53.163Z,101138.07
2019-02-08T17:46:00.293Z,101134.16
2019-02-08T17:48:11.570Z,101137.97
2019-02-08T17:50:27.512Z,101135.35
2019-02-08T17:52:35.371Z,101137.48
2019-02-08T17:54:43.001Z,101133.16
2019-02-08T17:56:50.374Z,101141.75
2019-02-08T17:58:58.054Z,101139.59
2019-02-08T18:01:05.473Z,101137.88
2019-02-08T18:03:12.683Z,101136.58
2019-02-08T18:05:20.332Z,101135.67
2019-02-08T18:07:27.774Z,101139.98
2019-02-08T18:09:35.314Z,101149.03
2019-02-08T18:11:42.453Z,101142.98
2019-02-08T18:13:49.722Z,101142.53
2019-02-08T18:15:57.373Z,101143.78
2019-02-08T18:18:09.236Z,101138.16
2019-02-08T18:20:26.854Z,101137.22
2019-02-08T18:22:34.006Z,101138.44
2019-02-08T18:24:41.406Z,101132.78
2019-02-08T18:26:48.925Z,101130.16
2019-02-08T18:28:55.937Z,101127.11
2019-02-08T18:31:03.134Z,101128.37
2019-02-08T18:33:10.686Z,101127.95
2019-02-08T18:35:18.522Z,101129.25
2019-02-08T18:37:25.775Z,101123.62
2019-02-08T18:39:33.071Z,101125.33
2019-02-08T18:41:40.539Z,101127.00
2019-02-08T18:43:48.541Z,101120.16
2019-02-08T18:45:56.703Z,101119.28
2019-02-08T18:48:04.175Z,101117.92
2019-02-08T18:50:32.834Z,101111.84
2019-02-08T18:52:39.944Z,101114.42
2019-02-08T18:54:47.524Z,101118.68
2019-02-08T18:56:54.954Z,101111.80
2019-02-08T18:59:02.915Z,101118.64
2019-02-08T19:01:10.232Z,101119.06
2019-02-08T19:03:17.301Z,101123.81
2019-02-08T19:05:25.754Z,101114.34
2019-02-08T19:07:42.201Z,101116.93
2019-02-08T19:09:49.364Z,101119.02
2019-02-08T19:11:56.915Z,101120.73
2019-02-08T19:14:03.952Z,101121.56
2019-02-08T19:16:11.114Z,101112.52
2019-02-08T19:18:18.750Z,101121.98
2019-02-08T19:20:32.054Z,101122.44
2019-02-08T19:22:40.743Z,101121.11
2019-02-08T19:24:47.972Z,101117.66
2019-02-08T19:26:55.531Z,101119.41
2019-02-08T19:29:03.131Z,101118.15
2019-02-08T19:31:10.502Z,101115.14
2019-02-08T19:33:17.714Z,101107.84
2019-02-08T19:35:25.111Z,101102.64
2019-02-08T19:37:32.671Z,101111.69
2019-02-08T19:39:44.501Z,101106.52
2019-02-08T19:41:51.473Z,101108.23
2019-02-08T19:43:59.031Z,101097.43
2019-02-08T19:46:06.352Z,101102.14
2019-02-08T19:48:14.111Z,101106.02
2019-02-08T19:50:28.051Z,101103.48
2019-02-08T19:52:34.985Z,101105.22
2019-02-08T19:54:43.509Z,101097.89
2019-02-08T19:56:50.914Z,101098.72
2019-02-08T19:58:59.104Z,101091.80
2019-02-08T20:01:08.444Z,101094.77
2019-02-08T20:03:16.552Z,101095.61
2019-02-08T20:05:28.340Z,101087.39
2019-02-08T20:07:35.772Z,101089.60
2019-02-08T20:09:43.577Z,101093.02
2019-02-08T20:11:51.342Z,101085.27
2019-02-08T20:13:58.654Z,101090.44
2019-02-08T20:16:06.814Z,101096.90
2019-02-08T20:18:14.691Z,101092.61
2019-02-08T20:20:21.914Z,101084.39
2019-02-08T20:22:29.324Z,101080.48
2019-02-08T20:24:36.444Z,101082.23
2019-02-08T20:26:43.706Z,101080.10
2019-02-08T20:28:50.857Z,101071.05
2019-02-08T20:30:57.931Z,101071.05
2019-02-08T20:33:05.897Z,101079.69
2019-02-08T20:35:16.724Z,101074.48
2019-02-08T20:37:26.149Z,101074.97
2019-02-08T20:39:34.306Z,101069.77
2019-02-08T20:41:47.000Z,101076.19
2019-02-08T20:43:54.539Z,101067.18
2019-02-08T20:46:02.624Z,101073.56
2019-02-08T20:48:22.372Z,101070.98
2019-02-08T20:50:30.214Z,101072.27
2019-02-08T20:52:37.862Z,101069.23
2019-02-08T20:54:46.493Z,101073.53
2019-02-08T20:56:59.033Z,101067.06
2019-02-08T20:59:04.071Z,101065.73
2019-02-08T21:01:14.723Z,101080.41
2019-02-08T21:03:23.674Z,101073.06
2019-02-08T21:05:32.225Z,101071.31
2019-02-08T21:07:39.623Z,101071.73
2019-02-08T21:09:46.514Z,101074.78
2019-02-08T21:11:53.707Z,101066.15
2019-02-08T21:14:00.721Z,101076.06
2019-02-08T21:16:08.600Z,101078.61
2019-02-08T21:18:15.788Z,101070.45
2019-02-08T21:20:25.021Z,101070.86
2019-02-08T21:22:32.180Z,101070.86
2019-02-08T21:24:41.811Z,101065.27
2019-02-08T21:26:49.580Z,101062.23
2019-02-08T21:28:57.913Z,101047.57
2019-02-08T21:31:11.562Z,101052.70
2019-02-08T21:33:18.963Z,101059.98
2019-02-08T21:35:25.924Z,101048.75
2019-02-08T21:37:33.153Z,101045.33
2019-02-08T21:39:40.115Z,101052.62
2019-02-08T21:41:48.974Z,101042.25
2019-02-08T21:43:56.485Z,101035.38
2019-02-08T21:46:04.130Z,101034.09
2019-02-08T21:48:12.763Z,101030.63
2019-02-08T21:50:22.766Z,101031.96
2019-02-08T21:52:30.194Z,101022.50
2019-02-08T21:54:38.065Z,101022.50
2019-02-08T21:56:45.318Z,101023.37
2019-02-08T21:58:52.256Z,101016.04
2019-02-08T22:00:59.620Z,101016.53
2019-02-08T22:03:08.339Z,101013.53
2019-02-08T22:05:15.529Z,101008.82
2019-02-08T22:07:22.772Z,101015.28
2019-02-08T22:09:29.744Z,101015.24
2019-02-08T22:11:37.155Z,101003.61
2019-02-08T22:13:44.074Z,101005.33
2019-02-08T22:15:51.243Z,101002.74
2019-02-08T22:17:58.224Z,100998.03
2019-02-08T22:20:08.569Z,100996.78
2019-02-08T22:22:15.234Z,100996.36
2019-02-08T22:24:22.534Z,100992.52
2019-02-08T22:26:30.905Z,100993.36
2019-02-08T22:28:37.555Z,100995.52
2019-02-08T22:30:44.394Z,100993.74
2019-02-08T22:32:52.916Z,100995.87
2019-02-08T22:34:59.684Z,100998.00
2019-02-08T22:37:07.081Z,100994.13
2019-02-08T22:39:15.513Z,100996.70
2019-02-08T22:41:24.172Z,100992.38
2019-02-08T22:43:34.052Z,100993.22
2019-02-08T22:45:43.642Z,100974.25
2019-02-08T22:47:50.434Z,100976.80
2019-02-08T22:49:58.583Z,100975.52
2019-02-08T22:52:05.714Z,100981.09
2019-02-08T22:54:12.914Z,100973.34
2019-02-08T22:56:19.607Z,100975.02
2019-02-08T22:58:26.564Z,100974.60
2019-02-08T23:00:44.833Z,100966.41
2019-02-08T23:02:53.570Z,100965.14
2019-02-08T23:05:00.087Z,100959.52
2019-02-08T23:07:08.072Z,100952.64
2019-02-08T23:09:21.835Z,100947.45
2019-02-08T23:11:29.644Z,100945.28
2019-02-08T23:13:36.552Z,100942.70
2019-02-08T23:15:43.296Z,100949.16
2019-02-08T23:17:50.084Z,100950.86
2019-02-08T23:19:56.504Z,100951.73
2019-02-08T23:22:03.303Z,100953.45
2019-02-08T23:24:10.384Z,100945.28
2019-02-08T23:26:17.154Z,100943.95
2019-02-08T23:28:23.915Z,100945.66
2019-02-08T23:30:30.774Z,100942.66
2019-02-08T23:32:37.573Z,100949.12
2019-02-08T23:34:45.262Z,100943.50
2019-02-08T23:36:52.354Z,100944.34
2019-02-08T23:38:59.433Z,100938.79
2019-02-08T23:41:07.764Z,100935.34
2019-02-08T23:43:14.741Z,100928.50
2019-02-08T23:45:23.873Z,100919.49
2019-02-08T23:47:31.124Z,100922.11
2019-02-08T23:49:37.719Z,100914.39
2019-02-08T23:51:44.647Z,100915.72
2019-02-08T23:53:51.368Z,100914.05
2019-02-08T23:55:59.130Z,100906.81
2019-02-08T23:58:08.244Z,100902.97
